createdAt,value
2019-04-28T00:00:46.504Z,32.27
2019-04-28T00:03:48.425Z,28.57
2019-04-28T00:06:51.498Z,31.47
2019-04-28T00:09:54.196Z,30.43
2019-04-28T00:12:56.207Z,31.60
2019-04-28T00:15:58.134Z,35.03
2019-04-28T00:19:01.117Z,33.00
2019-04-28T00:22:07.015Z,33.77
2019-04-28T00:25:21.390Z,34.83
2019-04-28T00:28:23.556Z,33.73
2019-04-28T00:31:25.531Z,33.47
2019-04-28T00:34:27.511Z,32.00
2019-04-28T00:37:31.942Z,31.17
2019-04-28T00:40:34.217Z,33.13
2019-04-28T00:43:36.150Z,36.40
2019-04-28T00:46:41.039Z,33.83
2019-04-28T00:49:46.413Z,34.67
2019-04-28T00:52:48.464Z,36.77
2019-04-28T00:55:51.624Z,34.67
2019-04-28T00:58:54.315Z,37.30
2019-04-28T01:01:58.073Z,37.63
2019-04-28T01:05:01.522Z,35.87
2019-04-28T01:08:05.219Z,34.97
2019-04-28T01:11:07.199Z,36.30
2019-04-28T01:14:09.213Z,36.60
2019-04-28T01:17:16.037Z,36.40
2019-04-28T01:20:22.308Z,37.30
2019-04-28T01:23:24.251Z,36.43
2019-04-28T01:26:26.115Z,35.23
2019-04-28T01:29:29.468Z,36.53
2019-04-28T01:32:33.542Z,34.23
2019-04-28T01:35:35.478Z,38.23
2019-04-28T01:38:37.407Z,35.70
2019-04-28T01:41:39.854Z,37.53
2019-04-28T01:44:41.980Z,34.67
2019-04-28T01:47:43.948Z,36.20
2019-04-28T01:50:45.907Z,34.40
2019-04-28T01:53:47.826Z,31.97
2019-04-28T01:56:50.263Z,34.20
2019-04-28T01:59:52.396Z,33.17
2019-04-28T02:02:54.299Z,31.00
2019-04-28T02:05:56.225Z,29.37
2019-04-28T02:08:58.180Z,29.07
2019-04-28T02:12:00.762Z,25.27
2019-04-28T02:15:05.772Z,24.33
2019-04-28T02:18:09.906Z,21.00
2019-04-28T02:21:32.192Z,21.17
2019-04-28T02:24:35.164Z,20.63
2019-04-28T02:27:37.617Z,20.43
2019-04-28T02:30:45.473Z,19.27
2019-04-28T02:33:43.405Z,18.87
2019-04-28T02:36:45.370Z,18.67
2019-04-28T02:39:47.292Z,17.30
2019-04-28T02:42:51.898Z,18.70
2019-04-28T02:45:53.710Z,16.03
2019-04-28T02:48:55.773Z,16.10
2019-04-28T02:52:05.009Z,16.60
2019-04-28T02:55:07.725Z,15.30
2019-04-28T02:58:11.348Z,16.00
2019-04-28T03:01:22.839Z,14.90
2019-04-28T03:04:17.355Z,14.83
2019-04-28T03:07:21.811Z,15.33
2019-04-28T03:10:23.190Z,14.47
2019-04-28T03:13:25.188Z,14.87
2019-04-28T03:16:27.222Z,14.03
2019-04-28T03:19:31.066Z,14.57
2019-04-28T03:22:33.875Z,14.17
2019-04-28T03:25:54.370Z,14.13
2019-04-28T03:29:11.440Z,14.23
2019-04-28T03:32:30.615Z,13.63
2019-04-28T03:35:22.949Z,14.37
2019-04-28T03:38:22.894Z,12.73
2019-04-28T03:41:24.815Z,12.20
2019-04-28T03:44:26.770Z,11.63
2019-04-28T03:47:31.199Z,10.60
2019-04-28T03:50:32.498Z,10.80
2019-04-28T03:53:34.384Z,9.87
2019-04-28T03:56:36.309Z,11.00
2019-04-28T03:59:41.227Z,10.83
2019-04-28T04:02:42.131Z,9.93
2019-04-28T04:05:44.013Z,10.07
2019-04-28T04:08:45.863Z,9.00
2019-04-28T04:11:50.892Z,8.10
2019-04-28T04:15:04.359Z,9.70
2019-04-28T04:18:10.871Z,8.93
2019-04-28T04:21:12.098Z,9.20
2019-04-28T04:24:14.039Z,8.70
2019-04-28T04:27:15.884Z,9.50
2019-04-28T04:30:17.818Z,9.63
2019-04-28T04:33:20.744Z,9.90
2019-04-28T04:36:23.036Z,9.80
2019-04-28T04:39:24.907Z,9.60
2019-04-28T04:42:26.989Z,8.50
2019-04-28T04:45:30.565Z,8.07
2019-04-28T04:48:32.796Z,8.47
2019-04-28T04:51:34.695Z,7.70
2019-04-28T04:54:36.968Z,7.47
2019-04-28T04:57:40.726Z,7.60
2019-04-28T05:00:51.128Z,7.67
2019-04-28T05:03:55.167Z,7.00
2019-04-28T05:06:57.134Z,8.00
2019-04-28T05:09:59.497Z,8.47
2019-04-28T05:13:01.897Z,7.87
2019-04-28T05:16:03.803Z,7.30
2019-04-28T05:19:05.869Z,7.70
2019-04-28T05:22:10.073Z,6.60
2019-04-28T05:25:20.441Z,6.37
2019-04-28T05:28:22.749Z,6.03
2019-04-28T05:31:24.653Z,5.50
2019-04-28T05:34:26.639Z,5.07
2019-04-28T05:37:29.915Z,5.10
2019-04-28T05:40:32.022Z,5.23
2019-04-28T05:43:33.983Z,5.70
2019-04-28T05:46:36.151Z,4.93
2019-04-28T05:49:39.951Z,4.70
2019-04-28T05:52:44.872Z,4.23
2019-04-28T05:55:54.188Z,4.80
2019-04-28T05:58:57.983Z,4.80
2019-04-28T06:02:04.403Z,4.27
2019-04-28T06:05:06.543Z,3.90
2019-04-28T06:08:16.059Z,4.37
2019-04-28T06:11:39.765Z,4.43
2019-04-28T06:14:41.954Z,4.67
2019-04-28T06:17:43.867Z,4.33
2019-04-28T06:20:45.937Z,4.30
2019-04-28T06:23:47.809Z,4.03
2019-04-28T06:26:49.805Z,4.73
2019-04-28T06:29:51.709Z,4.50
2019-04-28T06:33:06.770Z,3.90
2019-04-28T06:35:57.569Z,4.70
2019-04-28T06:38:59.542Z,4.27
2019-04-28T06:42:01.429Z,4.53
2019-04-28T06:45:06.087Z,4.10
2019-04-28T06:48:08.026Z,4.20
2019-04-28T06:51:09.972Z,3.90
2019-04-28T06:54:11.955Z,4.30
2019-04-28T06:57:13.955Z,4.20
2019-04-28T07:00:16.017Z,4.10
2019-04-28T07:03:23.296Z,4.00
2019-04-28T07:06:21.959Z,3.83
2019-04-28T07:09:24.045Z,4.07
2019-04-28T07:12:26.054Z,3.80
2019-04-28T07:15:29.111Z,4.73
2019-04-28T07:18:31.060Z,4.33
2019-04-28T07:21:38.072Z,3.77
2019-04-28T07:24:39.948Z,4.43
2019-04-28T07:27:41.983Z,4.47
2019-04-28T07:30:43.947Z,4.07
2019-04-28T07:33:45.886Z,4.47
2019-04-28T07:36:47.843Z,4.10
2019-04-28T07:39:49.750Z,4.13
2019-04-28T07:42:51.647Z,3.80
2019-04-28T07:45:54.794Z,3.80
2019-04-28T07:48:56.693Z,3.43
2019-04-28T07:52:00.483Z,3.80
2019-04-28T07:55:05.053Z,4.27
2019-04-28T07:58:06.984Z,3.70
2019-04-28T08:01:10.744Z,3.80
2019-04-28T08:04:12.680Z,4.67
2019-04-28T08:07:14.672Z,3.80
2019-04-28T08:10:16.615Z,4.67
2019-04-28T08:13:18.561Z,4.00
2019-04-28T08:16:21.041Z,4.80
2019-04-28T08:19:24.929Z,3.90
2019-04-28T08:22:26.939Z,3.67
2019-04-28T08:25:28.947Z,3.43
2019-04-28T08:28:31.967Z,3.80
2019-04-28T08:31:39.283Z,3.43
2019-04-28T08:34:42.354Z,3.10
2019-04-28T08:37:45.002Z,3.47
2019-04-28T08:40:46.918Z,2.97
2019-04-28T08:43:48.877Z,4.43
2019-04-28T08:46:50.838Z,3.37
2019-04-28T08:49:52.747Z,3.73
2019-04-28T08:52:54.693Z,4.67
2019-04-28T08:55:56.594Z,3.60
2019-04-28T08:58:58.604Z,3.87
2019-04-28T09:02:00.491Z,2.67
2019-04-28T09:05:03.815Z,3.40
2019-04-28T09:08:05.929Z,3.53
2019-04-28T09:11:07.996Z,4.63
2019-04-28T09:14:09.973Z,4.13
2019-04-28T09:17:11.890Z,4.90
2019-04-28T09:20:13.947Z,4.33
2019-04-28T09:23:15.962Z,4.13
2019-04-28T09:26:17.857Z,4.17
2019-04-28T09:29:19.864Z,5.13
2019-04-28T09:32:21.763Z,4.40
2019-04-28T09:35:25.079Z,5.10
2019-04-28T09:38:27.120Z,4.23
2019-04-28T09:41:29.294Z,5.17
2019-04-28T09:44:31.235Z,4.60
2019-04-28T09:47:33.159Z,4.83
2019-04-28T09:50:35.087Z,5.10
2019-04-28T09:53:37.003Z,5.53
2019-04-28T09:56:38.838Z,5.80
2019-04-28T09:59:40.835Z,4.87
2019-04-28T10:02:42.767Z,5.27
2019-04-28T10:05:45.099Z,5.43
2019-04-28T10:08:47.020Z,4.57
2019-04-28T10:11:48.991Z,5.00
2019-04-28T10:14:50.858Z,5.63
2019-04-28T10:17:52.898Z,5.43
2019-04-28T10:20:54.839Z,4.90
2019-04-28T10:23:56.885Z,5.43
2019-04-28T10:26:58.811Z,4.10
2019-04-28T10:30:00.747Z,4.17
2019-04-28T10:33:02.846Z,4.30
2019-04-28T10:36:04.819Z,4.83
2019-04-28T10:39:26.232Z,4.70
2019-04-28T10:42:28.215Z,4.20
2019-04-28T10:45:31.905Z,4.50
2019-04-28T10:48:33.840Z,4.00
2019-04-28T10:51:35.701Z,4.07
2019-04-28T10:54:37.596Z,3.80
2019-04-28T10:57:40.611Z,4.67
2019-04-28T11:00:42.680Z,4.30
2019-04-28T11:03:46.430Z,5.33
2019-04-28T11:06:48.357Z,5.20
2019-04-28T11:09:55.232Z,4.70
2019-04-28T11:12:57.306Z,4.90
2019-04-28T11:15:59.260Z,4.23
2019-04-28T11:19:01.266Z,4.10
2019-04-28T11:22:03.232Z,4.80
2019-04-28T11:25:05.628Z,4.53
2019-04-28T11:28:07.818Z,4.17
2019-04-28T11:31:09.828Z,4.50
2019-04-28T11:34:30.084Z,4.40
2019-04-28T11:37:32.064Z,4.50
2019-04-28T11:40:34.109Z,4.37
2019-04-28T11:43:36.210Z,4.80
2019-04-28T11:46:38.200Z,5.23
2019-04-28T11:49:40.099Z,4.90
2019-04-28T11:52:42.056Z,5.30
2019-04-28T11:55:43.984Z,5.13
2019-04-28T11:58:45.962Z,4.80
2019-04-28T12:01:47.977Z,4.93
2019-04-28T12:04:50.625Z,4.90
2019-04-28T12:07:52.592Z,5.47
2019-04-28T12:11:02.584Z,5.43
2019-04-28T12:14:15.773Z,5.27
2019-04-28T12:17:25.349Z,5.00
2019-04-28T12:20:27.494Z,5.40
2019-04-28T12:23:29.524Z,6.00
2019-04-28T12:26:31.681Z,5.17
2019-04-28T12:29:33.707Z,5.40
2019-04-28T12:32:35.708Z,5.17
2019-04-28T12:35:47.705Z,4.90
2019-04-28T12:38:41.669Z,4.30
2019-04-28T12:41:43.679Z,4.67
2019-04-28T12:44:45.638Z,4.33
2019-04-28T12:47:47.552Z,4.47
2019-04-28T12:50:52.678Z,3.97
2019-04-28T12:53:56.370Z,4.93
2019-04-28T12:56:58.319Z,4.90
2019-04-28T13:00:02.093Z,4.07
2019-04-28T13:03:06.345Z,4.03
2019-04-28T13:06:10.130Z,4.40
2019-04-28T13:09:12.054Z,4.00
2019-04-28T13:12:15.778Z,3.77
2019-04-28T13:15:17.711Z,4.10
2019-04-28T13:18:19.689Z,3.93
2019-04-28T13:21:21.617Z,3.13
2019-04-28T13:24:25.822Z,3.93
2019-04-28T13:27:27.872Z,4.23
2019-04-28T13:30:29.896Z,3.40
2019-04-28T13:33:31.821Z,3.37
2019-04-28T13:36:35.028Z,4.47
2019-04-28T13:39:38.824Z,3.23
2019-04-28T13:42:40.830Z,4.00
2019-04-28T13:45:42.780Z,3.50
2019-04-28T13:48:44.824Z,4.17
2019-04-28T13:51:46.750Z,3.80
2019-04-28T13:54:50.547Z,3.47
2019-04-28T13:57:52.552Z,3.50
2019-04-28T14:00:59.309Z,3.70
2019-04-28T14:04:19.831Z,4.00
2019-04-28T14:07:22.413Z,3.80
2019-04-28T14:10:24.447Z,3.90
2019-04-28T14:13:26.579Z,2.90
2019-04-28T14:16:28.720Z,3.33
2019-04-28T14:19:30.732Z,3.57
2019-04-28T14:22:32.709Z,10.47
2019-04-28T14:25:35.036Z,6.77
2019-04-28T14:28:38.911Z,6.93
2019-04-28T14:31:40.865Z,4.70
2019-04-28T14:34:42.843Z,7.63
2019-04-28T14:37:45.998Z,8.40
2019-04-28T14:40:47.930Z,5.33
2019-04-28T14:43:49.951Z,8.67
2019-04-28T14:46:52.936Z,5.23
2019-04-28T14:49:54.871Z,6.27
2019-04-28T14:52:56.845Z,3.83
2019-04-28T14:55:58.740Z,5.30
2019-04-28T14:59:02.582Z,5.50
2019-04-28T15:02:15.106Z,4.13
2019-04-28T15:05:21.656Z,5.73
2019-04-28T15:08:42.203Z,5.70
2019-04-28T15:11:47.155Z,4.77
2019-04-28T15:14:49.242Z,6.60
2019-04-28T15:17:51.187Z,4.50
2019-04-28T15:20:55.971Z,4.07
2019-04-28T15:23:58.298Z,5.77
2019-04-28T15:27:00.573Z,5.13
2019-04-28T15:30:04.227Z,5.47
2019-04-28T15:33:08.356Z,7.20
2019-04-28T15:36:10.252Z,5.53
2019-04-28T15:39:13.171Z,17.53
2019-04-28T15:42:15.462Z,7.43
2019-04-28T15:45:17.460Z,6.10
2019-04-28T15:48:19.468Z,4.70
2019-04-28T15:51:21.464Z,6.20
2019-04-28T15:54:23.477Z,4.20
2019-04-28T15:57:25.435Z,5.50
2019-04-28T16:00:27.426Z,38.07
2019-04-28T16:03:29.696Z,71.63
2019-04-28T16:06:32.235Z,66.43
2019-04-28T16:09:34.140Z,36.43
2019-04-28T16:12:36.047Z,23.20
2019-04-28T16:15:38.268Z,17.93
2019-04-28T16:18:40.221Z,17.23
2019-04-28T16:21:42.149Z,8.10
2019-04-28T16:24:45.918Z,6.80
2019-04-28T16:27:49.661Z,5.10
2019-04-28T16:30:53.021Z,6.80
2019-04-28T16:33:59.069Z,10.70
2019-04-28T16:37:00.939Z,16.50
2019-04-28T16:40:08.993Z,18.00
2019-04-28T16:43:15.686Z,21.63
2019-04-28T16:46:17.774Z,45.00
2019-04-28T16:49:19.738Z,28.93
2019-04-28T16:52:23.934Z,38.60
2019-04-28T16:55:31.434Z,33.30
2019-04-28T16:58:53.548Z,24.20
2019-04-28T17:02:15.335Z,21.90
2019-04-28T17:05:20.220Z,13.07
2019-04-28T17:08:22.216Z,21.60
2019-04-28T17:11:26.409Z,10.10
2019-04-28T17:14:30.152Z,15.50
2019-04-28T17:17:34.002Z,23.20
2019-04-28T17:20:37.161Z,17.30
2019-04-28T17:23:39.155Z,11.73
2019-04-28T17:26:44.226Z,10.07
2019-04-28T17:29:47.402Z,10.67
2019-04-28T17:32:52.805Z,14.87
2019-04-28T17:36:00.977Z,15.23
2019-04-28T17:39:10.301Z,17.30
2019-04-28T17:42:15.633Z,20.20
2019-04-28T17:45:21.370Z,22.17
2019-04-28T17:48:27.457Z,18.80
2019-04-28T17:51:29.399Z,23.07
2019-04-28T17:54:31.301Z,20.07
2019-04-28T17:57:33.610Z,19.57
2019-04-28T18:00:56.360Z,19.23
2019-04-28T18:04:18.458Z,58.43
2019-04-28T18:07:25.266Z,22.37
2019-04-28T18:10:27.760Z,20.93
2019-04-28T18:13:32.208Z,20.43
2019-04-28T18:16:55.402Z,20.20
2019-04-28T18:19:57.501Z,23.47
2019-04-28T18:22:59.797Z,32.03
2019-04-28T18:26:04.846Z,30.53
2019-04-28T18:29:07.854Z,34.77
2019-04-28T18:32:26.115Z,20.37
2019-04-28T18:35:33.057Z,22.40
2019-04-28T18:38:45.217Z,18.20
2019-04-28T18:41:51.776Z,17.00
2019-04-28T18:44:53.741Z,20.10
2019-04-28T18:47:55.690Z,19.97
2019-04-28T18:50:58.192Z,16.13
2019-04-28T18:54:00.163Z,16.80
2019-04-28T18:57:02.379Z,16.93
2019-04-28T19:00:06.005Z,18.80
2019-04-28T19:03:09.811Z,18.63
2019-04-28T19:06:14.485Z,19.63
2019-04-28T19:09:36.912Z,20.63
2019-04-28T19:12:50.023Z,19.93
2019-04-28T19:15:58.221Z,21.73
2019-04-28T19:19:04.914Z,20.20
2019-04-28T19:22:06.900Z,16.03
2019-04-28T19:25:09.563Z,15.43
2019-04-28T19:28:11.501Z,15.57
2019-04-28T19:31:15.558Z,14.70
2019-04-28T19:34:17.795Z,18.20
2019-04-28T19:37:20.554Z,14.33
2019-04-28T19:40:22.900Z,14.77
2019-04-28T19:43:24.898Z,13.37
2019-04-28T19:46:28.134Z,14.70
2019-04-28T19:49:30.082Z,12.80
2019-04-28T19:52:34.256Z,14.50
2019-04-28T19:55:45.175Z,12.63
2019-04-28T19:58:49.975Z,13.43
2019-04-28T20:01:51.899Z,12.20
2019-04-28T20:04:55.668Z,10.83
2019-04-28T20:07:57.623Z,12.07
2019-04-28T20:11:00.740Z,10.03
2019-04-28T20:14:04.833Z,9.87
2019-04-28T20:17:06.702Z,12.37
2019-04-28T20:20:11.397Z,11.03
2019-04-28T20:23:14.683Z,10.73
2019-04-28T20:26:16.658Z,10.07
2019-04-28T20:29:23.172Z,11.13
2019-04-28T20:32:24.717Z,9.10
2019-04-28T20:35:46.818Z,9.87
2019-04-28T20:38:50.636Z,8.87
2019-04-28T20:41:52.672Z,9.37
2019-04-28T20:44:54.950Z,9.83
2019-04-28T20:47:56.982Z,9.77
2019-04-28T20:50:58.940Z,10.23
2019-04-28T20:54:00.914Z,10.17
2019-04-28T20:57:02.901Z,9.90
2019-04-28T21:00:05.320Z,10.83
2019-04-28T21:03:11.188Z,9.70
2019-04-28T21:06:13.082Z,11.47
2019-04-28T21:09:15.035Z,14.00
2019-04-28T21:12:16.951Z,13.23
2019-04-28T21:15:18.917Z,13.17
2019-04-28T21:18:20.860Z,11.60
2019-04-28T21:21:22.810Z,11.70
2019-04-28T21:24:24.810Z,11.40
2019-04-28T21:27:26.741Z,12.80
2019-04-28T21:30:28.688Z,11.00
2019-04-28T21:33:30.632Z,11.10
2019-04-28T21:36:32.521Z,10.80
2019-04-28T21:39:34.934Z,11.23
2019-04-28T21:42:44.510Z,11.10
2019-04-28T21:45:50.373Z,9.30
2019-04-28T21:48:53.875Z,9.60
2019-04-28T21:51:55.826Z,9.47
2019-04-28T21:54:57.889Z,8.90
2019-04-28T21:57:59.806Z,8.43
2019-04-28T22:01:02.162Z,8.57
2019-04-28T22:04:05.924Z,8.60
2019-04-28T22:07:07.842Z,7.90
2019-04-28T22:10:09.910Z,8.47
2019-04-28T22:13:11.932Z,8.40
2019-04-28T22:16:13.832Z,7.83
2019-04-28T22:19:15.903Z,8.20
2019-04-28T22:22:17.849Z,8.30
2019-04-28T22:25:24.231Z,8.23
2019-04-28T22:28:26.246Z,8.20
2019-04-28T22:31:28.147Z,8.40
2019-04-28T22:34:30.137Z,7.43
2019-04-28T22:37:32.063Z,7.63
2019-04-28T22:40:34.513Z,7.60
2019-04-28T22:43:36.422Z,8.33
2019-04-28T22:46:38.421Z,8.27
2019-04-28T22:49:40.907Z,8.13
2019-04-28T22:52:42.823Z,6.93
2019-04-28T22:55:46.896Z,7.30
2019-04-28T22:58:56.697Z,8.20
2019-04-28T23:02:00.458Z,7.80
2019-04-28T23:05:06.577Z,8.13
2019-04-28T23:08:08.543Z,7.27
2019-04-28T23:11:10.385Z,7.60
2019-04-28T23:14:12.317Z,8.73
2019-04-28T23:17:17.094Z,8.60
2019-04-28T23:20:19.344Z,8.80
2019-04-28T23:23:21.271Z,7.43
2019-04-28T23:26:23.259Z,8.83
2019-04-28T23:29:25.156Z,7.80
2019-04-28T23:32:27.072Z,7.63
2019-04-28T23:35:29.011Z,8.83
2019-04-28T23:38:31.085Z,8.57
2019-04-28T23:41:37.984Z,8.23
2019-04-28T23:44:39.896Z,7.30
2019-04-28T23:47:41.776Z,8.10
2019-04-28T23:51:02.142Z,7.83
2019-04-28T23:54:05.904Z,7.33
2019-04-28T23:57:07.962Z,8.17
